sensor_id;sensor_type;location;lat;lon;timestamp;P1;durP1;ratioP1;P2;durP2;ratioP2
966;SDS011;56108;48.730;9.304;2023-10-09T00:00:44;7.18;;;4.60;;
966;SDS011;56108;48.730;9.304;2023-10-09T00:02:56;7.65;;;5.55;;
966;SDS011;56108;48.730;9.304;2023-10-09T00:05:06;6.13;;;4.78;;
966;SDS011;56108;48.730;9.304;2023-10-09T00:07:17;8.05;;;4.38;;
966;SDS011;56108;48.730;9.304;2023-10-09T00:09:31;14.00;;;5.18;;
966;SDS011;56108;48.730;9.304;2023-10-09T00:11:51;12.52;;;6.57;;
966;SDS011;56108;48.730;9.304;2023-10-09T00:14:02;9.70;;;6.13;;
966;SDS011;56108;48.730;9.304;2023-10-09T00:16:14;12.02;;;5.00;;
966;SDS011;56108;48.730;9.304;2023-10-09T00:18:20;8.57;;;4.45;;
966;SDS011;56108;48.730;9.304;2023-10-09T00:20:35;9.52;;;6.47;;
966;SDS011;56108;48.730;9.304;2023-10-09T00:22:47;7.65;;;5.53;;
966;SDS011;56108;48.730;9.304;2023-10-09T00:24:57;5.50;;;4.75;;
966;SDS011;56108;48.730;9.304;2023-10-09T00:27:17;9.80;;;5.07;;
966;SDS011;56108;48.730;9.304;2023-10-09T00:29:29;10.13;;;5.68;;
966;SDS011;56108;48.730;9.304;2023-10-09T00:31:42;7.85;;;6.18;;
966;SDS011;56108;48.730;9.304;2023-10-09T00:33:54;8.30;;;5.63;;
966;SDS011;56108;48.730;9.304;2023-10-09T00:36:07;7.70;;;6.03;;
966;SDS011;56108;48.730;9.304;2023-10-09T00:38:22;7.13;;;4.75;;
966;SDS011;56108;48.730;9.304;2023-10-09T00:40:38;8.05;;;5.07;;
966;SDS011;56108;48.730;9.304;2023-10-09T00:42:52;7.20;;;4.30;;
966;SDS011;56108;48.730;9.304;2023-10-09T00:45:00;5.47;;;4.43;;
966;SDS011;56108;48.730;9.304;2023-10-09T00:47:13;6.93;;;4.60;;
966;SDS011;56108;48.730;9.304;2023-10-09T00:49:31;6.05;;;4.45;;
966;SDS011;56108;48.730;9.304;2023-10-09T00:51:45;7.60;;;5.30;;
966;SDS011;56108;48.730;9.304;2023-10-09T00:54:02;5.57;;;5.07;;
966;SDS011;56108;48.730;9.304;2023-10-09T00:56:21;7.60;;;4.85;;
966;SDS011;56108;48.730;9.304;2023-10-09T00:58:33;8.50;;;5.30;;
966;SDS011;56108;48.730;9.304;2023-10-09T01:00:42;8.50;;;5.32;;
966;SDS011;56108;48.730;9.304;2023-10-09T01:03:00;7.32;;;4.72;;
966;SDS011;56108;48.730;9.304;2023-10-09T01:05:24;5.82;;;4.45;;
966;SDS011;56108;48.730;9.304;2023-10-09T01:07:34;8.15;;;5.22;;
966;SDS011;56108;48.730;9.304;2023-10-09T01:09:41;8.35;;;4.57;;
966;SDS011;56108;48.730;9.304;2023-10-09T01:11:50;8.50;;;4.78;;
966;SDS011;56108;48.730;9.304;2023-10-09T01:14:11;5.85;;;3.72;;
966;SDS011;56108;48.730;9.304;2023-10-09T01:16:18;9.40;;;4.00;;
966;SDS011;56108;48.730;9.304;2023-10-09T01:18:30;13.05;;;4.50;;
966;SDS011;56108;48.730;9.304;2023-10-09T01:20:44;11.30;;;4.70;;
966;SDS011;56108;48.730;9.304;2023-10-09T01:22:52;8.25;;;4.40;;
966;SDS011;56108;48.730;9.304;2023-10-09T01:25:05;8.23;;;4.50;;
966;SDS011;56108;48.730;9.304;2023-10-09T01:27:14;4.90;;;3.75;;
966;SDS011;56108;48.730;9.304;2023-10-09T01:29:27;7.47;;;4.38;;
966;SDS011;56108;48.730;9.304;2023-10-09T01:31:36;6.25;;;4.30;;
966;SDS011;56108;48.730;9.304;2023-10-09T01:33:48;5.85;;;3.25;;
966;SDS011;56108;48.730;9.304;2023-10-09T01:35:58;9.57;;;4.28;;
966;SDS011;56108;48.730;9.304;2023-10-09T01:38:10;10.30;;;5.18;;
966;SDS011;56108;48.730;9.304;2023-10-09T01:40:23;7.80;;;3.75;;
966;SDS011;56108;48.730;9.304;2023-10-09T01:42:41;11.02;;;4.22;;
966;SDS011;56108;48.730;9.304;2023-10-09T01:44:52;7.40;;;3.60;;
966;SDS011;56108;48.730;9.304;2023-10-09T01:47:03;13.13;;;4.50;;
966;SDS011;56108;48.730;9.304;2023-10-09T01:49:13;4.70;;;3.65;;
966;SDS011;56108;48.730;9.304;2023-10-09T01:51:50;9.45;;;4.40;;
966;SDS011;56108;48.730;9.304;2023-10-09T01:53:56;11.45;;;3.95;;
966;SDS011;56108;48.730;9.304;2023-10-09T01:56:11;6.90;;;3.90;;
966;SDS011;56108;48.730;9.304;2023-10-09T01:58:23;6.50;;;4.10;;
966;SDS011;56108;48.730;9.304;2023-10-09T02:00:32;10.35;;;4.10;;
966;SDS011;56108;48.730;9.304;2023-10-09T02:02:48;6.50;;;4.57;;
966;SDS011;56108;48.730;9.304;2023-10-09T02:04:58;9.60;;;4.97;;
966;SDS011;56108;48.730;9.304;2023-10-09T02:07:15;10.23;;;3.70;;
966;SDS011;56108;48.730;9.304;2023-10-09T02:09:27;8.25;;;4.40;;
966;SDS011;56108;48.730;9.304;2023-10-09T02:11:42;7.35;;;4.35;;
966;SDS011;56108;48.730;9.304;2023-10-09T02:13:50;10.43;;;4.70;;
966;SDS011;56108;48.730;9.304;2023-10-09T02:16:06;5.35;;;4.10;;
966;SDS011;56108;48.730;9.304;2023-10-09T02:18:31;5.38;;;4.10;;
966;SDS011;56108;48.730;9.304;2023-10-09T02:21:06;9.73;;;4.28;;
966;SDS011;56108;48.730;9.304;2023-10-09T02:23:33;9.60;;;4.45;;
966;SDS011;56108;48.730;9.304;2023-10-09T02:25:54;8.75;;;4.35;;
966;SDS011;56108;48.730;9.304;2023-10-09T02:28:09;7.93;;;4.25;;
966;SDS011;56108;48.730;9.304;2023-10-09T02:30:22;8.90;;;4.35;;
966;SDS011;56108;48.730;9.304;2023-10-09T02:32:40;9.65;;;4.65;;
966;SDS011;56108;48.730;9.304;2023-10-09T02:34:47;8.35;;;4.75;;
966;SDS011;56108;48.730;9.304;2023-10-09T02:36:58;11.68;;;4.88;;
966;SDS011;56108;48.730;9.304;2023-10-09T02:39:11;5.85;;;4.32;;
966;SDS011;56108;48.730;9.304;2023-10-09T02:41:29;6.05;;;4.22;;
966;SDS011;56108;48.730;9.304;2023-10-09T02:43:42;6.97;;;4.03;;
966;SDS011;56108;48.730;9.304;2023-10-09T02:45:52;7.43;;;4.13;;
966;SDS011;56108;48.730;9.304;2023-10-09T02:48:01;13.48;;;5.22;;
966;SDS011;56108;48.730;9.304;2023-10-09T02:50:16;8.63;;;3.55;;
966;SDS011;56108;48.730;9.304;2023-10-09T02:52:40;6.57;;;3.75;;
966;SDS011;56108;48.730;9.304;2023-10-09T02:54:48;8.95;;;4.45;;
966;SDS011;56108;48.730;9.304;2023-10-09T02:57:04;8.63;;;4.22;;
966;SDS011;56108;48.730;9.304;2023-10-09T02:59:23;10.65;;;4.35;;
966;SDS011;56108;48.730;9.304;2023-10-09T03:01:32;5.60;;;4.00;;
966;SDS011;56108;48.730;9.304;2023-10-09T03:03:42;5.50;;;3.45;;
966;SDS011;56108;48.730;9.304;2023-10-09T03:05:52;6.28;;;3.85;;
966;SDS011;56108;48.730;9.304;2023-10-09T03:08:00;8.30;;;3.85;;
966;SDS011;56108;48.730;9.304;2023-10-09T03:10:09;6.18;;;3.85;;
966;SDS011;56108;48.730;9.304;2023-10-09T03:12:18;7.50;;;4.20;;
966;SDS011;56108;48.730;9.304;2023-10-09T03:14:35;6.93;;;4.35;;
966;SDS011;56108;48.730;9.304;2023-10-09T03:16:46;9.38;;;4.40;;
966;SDS011;56108;48.730;9.304;2023-10-09T03:18:53;11.70;;;4.15;;
966;SDS011;56108;48.730;9.304;2023-10-09T03:21:01;9.10;;;4.10;;
966;SDS011;56108;48.730;9.304;2023-10-09T03:23:11;15.40;;;4.22;;
966;SDS011;56108;48.730;9.304;2023-10-09T03:25:20;11.88;;;3.95;;
966;SDS011;56108;48.730;9.304;2023-10-09T03:27:30;9.20;;;3.95;;
966;SDS011;56108;48.730;9.304;2023-10-09T03:29:42;11.65;;;4.53;;
966;SDS011;56108;48.730;9.304;2023-10-09T03:31:55;10.02;;;4.07;;
966;SDS011;56108;48.730;9.304;2023-10-09T03:34:05;13.45;;;4.75;;
966;SDS011;56108;48.730;9.304;2023-10-09T03:36:13;12.40;;;4.38;;
966;SDS011;56108;48.730;9.304;2023-10-09T03:38:21;10.88;;;4.38;;
966;SDS011;56108;48.730;9.304;2023-10-09T03:40:34;6.57;;;4.13;;
966;SDS011;56108;48.730;9.304;2023-10-09T03:42:44;10.68;;;4.53;;
966;SDS011;56108;48.730;9.304;2023-10-09T03:44:56;12.20;;;4.40;;
966;SDS011;56108;48.730;9.304;2023-10-09T03:47:04;8.00;;;4.63;;
966;SDS011;56108;48.730;9.304;2023-10-09T03:49:16;8.93;;;3.72;;
966;SDS011;56108;48.730;9.304;2023-10-09T03:51:28;10.80;;;4.10;;
966;SDS011;56108;48.730;9.304;2023-10-09T03:53:38;7.05;;;4.40;;
966;SDS011;56108;48.730;9.304;2023-10-09T03:55:47;13.40;;;4.22;;
966;SDS011;56108;48.730;9.304;2023-10-09T03:57:55;8.27;;;3.90;;
966;SDS011;56108;48.730;9.304;2023-10-09T04:00:09;6.43;;;3.83;;
966;SDS011;56108;48.730;9.304;2023-10-09T04:02:32;12.45;;;4.05;;
966;SDS011;56108;48.730;9.304;2023-10-09T04:04:41;6.60;;;4.20;;
966;SDS011;56108;48.730;9.304;2023-10-09T04:06:52;12.88;;;3.65;;
966;SDS011;56108;48.730;9.304;2023-10-09T04:09:01;9.13;;;4.72;;
966;SDS011;56108;48.730;9.304;2023-10-09T04:11:34;10.63;;;5.03;;
966;SDS011;56108;48.730;9.304;2023-10-09T04:13:47;5.50;;;3.63;;
966;SDS011;56108;48.730;9.304;2023-10-09T04:16:00;7.22;;;3.67;;
966;SDS011;56108;48.730;9.304;2023-10-09T04:18:14;6.25;;;4.40;;
966;SDS011;56108;48.730;9.304;2023-10-09T04:20:23;7.95;;;3.83;;
966;SDS011;56108;48.730;9.304;2023-10-09T04:22:44;7.20;;;4.43;;
966;SDS011;56108;48.730;9.304;2023-10-09T04:25:05;6.40;;;4.18;;
966;SDS011;56108;48.730;9.304;2023-10-09T04:27:12;9.30;;;4.25;;
966;SDS011;56108;48.730;9.304;2023-10-09T04:29:22;10.43;;;5.05;;
966;SDS011;56108;48.730;9.304;2023-10-09T04:31:45;7.00;;;4.32;;
966;SDS011;56108;48.730;9.304;2023-10-09T04:33:56;10.07;;;4.70;;
966;SDS011;56108;48.730;9.304;2023-10-09T04:36:17;10.00;;;5.82;;
966;SDS011;56108;48.730;9.304;2023-10-09T04:38:40;7.72;;;4.28;;
966;SDS011;56108;48.730;9.304;2023-10-09T04:40:57;10.35;;;5.13;;
966;SDS011;56108;48.730;9.304;2023-10-09T04:43:10;9.23;;;3.80;;
966;SDS011;56108;48.730;9.304;2023-10-09T04:45:25;10.07;;;4.88;;
966;SDS011;56108;48.730;9.304;2023-10-09T04:47:49;5.55;;;4.70;;
966;SDS011;56108;48.730;9.304;2023-10-09T04:50:03;7.70;;;4.45;;
966;SDS011;56108;48.730;9.304;2023-10-09T04:52:16;8.43;;;4.28;;
966;SDS011;56108;48.730;9.304;2023-10-09T04:54:47;8.45;;;4.20;;
966;SDS011;56108;48.730;9.304;2023-10-09T04:57:20;8.23;;;3.95;;
966;SDS011;56108;48.730;9.304;2023-10-09T04:59:30;10.18;;;3.85;;
966;SDS011;56108;48.730;9.304;2023-10-09T05:01:51;7.63;;;4.18;;
966;SDS011;56108;48.730;9.304;2023-10-09T05:04:12;7.18;;;3.40;;
966;SDS011;56108;48.730;9.304;2023-10-09T05:06:44;4.53;;;3.15;;
966;SDS011;56108;48.730;9.304;2023-10-09T05:09:00;14.80;;;4.10;;
966;SDS011;56108;48.730;9.304;2023-10-09T05:11:21;7.97;;;3.90;;
966;SDS011;56108;48.730;9.304;2023-10-09T05:13:39;8.57;;;3.22;;
966;SDS011;56108;48.730;9.304;2023-10-09T05:16:03;7.28;;;3.80;;
966;SDS011;56108;48.730;9.304;2023-10-09T05:18:09;4.70;;;3.22;;
966;SDS011;56108;48.730;9.304;2023-10-09T05:20:25;5.47;;;3.85;;
966;SDS011;56108;48.730;9.304;2023-10-09T05:22:45;9.55;;;2.95;;
966;SDS011;56108;48.730;9.304;2023-10-09T05:25:19;10.57;;;4.00;;
966;SDS011;56108;48.730;9.304;2023-10-09T05:30:09;15.32;;;4.13;;
966;SDS011;56108;48.730;9.304;2023-10-09T05:32:29;10.50;;;4.53;;
966;SDS011;56108;48.730;9.304;2023-10-09T05:34:40;11.02;;;3.92;;
966;SDS011;56108;48.730;9.304;2023-10-09T05:37:14;18.65;;;3.30;;
966;SDS011;56108;48.730;9.304;2023-10-09T05:39:22;19.75;;;4.07;;
966;SDS011;56108;48.730;9.304;2023-10-09T05:41:46;7.00;;;3.80;;
966;SDS011;56108;48.730;9.304;2023-10-09T05:43:57;7.20;;;3.90;;
966;SDS011;56108;48.730;9.304;2023-10-09T05:46:18;11.65;;;4.45;;
966;SDS011;56108;48.730;9.304;2023-10-09T05:48:40;8.38;;;3.20;;
966;SDS011;56108;48.730;9.304;2023-10-09T05:50:59;9.23;;;3.72;;
966;SDS011;56108;48.730;9.304;2023-10-09T05:53:42;6.25;;;3.60;;
966;SDS011;56108;48.730;9.304;2023-10-09T05:56:16;5.05;;;3.03;;
966;SDS011;56108;48.730;9.304;2023-10-09T05:58:42;6.28;;;3.15;;
966;SDS011;56108;48.730;9.304;2023-10-09T06:01:03;10.57;;;3.70;;
966;SDS011;56108;48.730;9.304;2023-10-09T06:03:23;4.80;;;3.35;;
966;SDS011;56108;48.730;9.304;2023-10-09T06:05:53;10.30;;;3.72;;
966;SDS011;56108;48.730;9.304;2023-10-09T06:08:10;9.80;;;4.25;;
966;SDS011;56108;48.730;9.304;2023-10-09T06:10:20;10.45;;;4.13;;
966;SDS011;56108;48.730;9.304;2023-10-09T06:12:43;6.40;;;3.80;;
966;SDS011;56108;48.730;9.304;2023-10-09T06:15:02;5.95;;;3.40;;
966;SDS011;56108;48.730;9.304;2023-10-09T06:17:24;10.07;;;4.32;;
966;SDS011;56108;48.730;9.304;2023-10-09T06:19:48;9.68;;;4.38;;
966;SDS011;56108;48.730;9.304;2023-10-09T06:21:54;6.10;;;3.40;;
966;SDS011;56108;48.730;9.304;2023-10-09T06:24:15;7.40;;;4.50;;
966;SDS011;56108;48.730;9.304;2023-10-09T06:26:26;10.02;;;4.05;;
966;SDS011;56108;48.730;9.304;2023-10-09T06:28:32;9.35;;;4.88;;
966;SDS011;56108;48.730;9.304;2023-10-09T06:30:40;6.63;;;4.00;;
966;SDS011;56108;48.730;9.304;2023-10-09T06:32:51;5.88;;;3.78;;
966;SDS011;56108;48.730;9.304;2023-10-09T06:35:09;8.88;;;3.85;;
966;SDS011;56108;48.730;9.304;2023-10-09T06:37:22;4.05;;;3.20;;
966;SDS011;56108;48.730;9.304;2023-10-09T06:40:03;8.27;;;3.83;;
966;SDS011;56108;48.730;9.304;2023-10-09T06:42:43;11.18;;;4.95;;
966;SDS011;56108;48.730;9.304;2023-10-09T06:44:59;12.63;;;4.25;;
966;SDS011;56108;48.730;9.304;2023-10-09T06:47:09;7.55;;;3.65;;
966;SDS011;56108;48.730;9.304;2023-10-09T06:49:15;6.38;;;4.25;;
966;SDS011;56108;48.730;9.304;2023-10-09T06:51:41;14.55;;;3.70;;
966;SDS011;56108;48.730;9.304;2023-10-09T06:53:46;6.93;;;3.85;;
966;SDS011;56108;48.730;9.304;2023-10-09T06:56:10;6.30;;;3.78;;
966;SDS011;56108;48.730;9.304;2023-10-09T06:58:30;9.85;;;3.60;;
966;SDS011;56108;48.730;9.304;2023-10-09T07:00:47;14.18;;;3.55;;
966;SDS011;56108;48.730;9.304;2023-10-09T07:03:23;11.23;;;3.80;;
966;SDS011;56108;48.730;9.304;2023-10-09T07:05:35;6.60;;;3.72;;
966;SDS011;56108;48.730;9.304;2023-10-09T07:07:53;5.60;;;3.33;;
966;SDS011;56108;48.730;9.304;2023-10-09T07:10:23;5.40;;;3.65;;
966;SDS011;56108;48.730;9.304;2023-10-09T07:12:34;9.18;;;3.83;;
966;SDS011;56108;48.730;9.304;2023-10-09T07:14:50;8.18;;;3.90;;
966;SDS011;56108;48.730;9.304;2023-10-09T07:17:10;8.57;;;4.70;;
966;SDS011;56108;48.730;9.304;2023-10-09T07:19:27;11.52;;;3.40;;
966;SDS011;56108;48.730;9.304;2023-10-09T07:21:40;8.20;;;3.88;;
966;SDS011;56108;48.730;9.304;2023-10-09T07:23:56;7.32;;;3.58;;
966;SDS011;56108;48.730;9.304;2023-10-09T07:26:19;5.00;;;3.00;;
966;SDS011;56108;48.730;9.304;2023-10-09T07:28:41;8.68;;;3.95;;
966;SDS011;56108;48.730;9.304;2023-10-09T07:30:56;11.73;;;4.13;;
966;SDS011;56108;48.730;9.304;2023-10-09T07:33:07;6.00;;;3.45;;
966;SDS011;56108;48.730;9.304;2023-10-09T07:35:24;6.22;;;3.60;;
966;SDS011;56108;48.730;9.304;2023-10-09T07:37:51;12.45;;;3.90;;
966;SDS011;56108;48.730;9.304;2023-10-09T07:40:01;8.95;;;3.75;;
966;SDS011;56108;48.730;9.304;2023-10-09T07:42:12;5.22;;;3.92;;
966;SDS011;56108;48.730;9.304;2023-10-09T07:44:24;8.32;;;3.90;;
966;SDS011;56108;48.730;9.304;2023-10-09T07:46:47;8.88;;;3.72;;
966;SDS011;56108;48.730;9.304;2023-10-09T07:49:08;10.00;;;3.90;;
966;SDS011;56108;48.730;9.304;2023-10-09T07:51:17;7.93;;;3.63;;
966;SDS011;56108;48.730;9.304;2023-10-09T07:53:28;5.43;;;3.50;;
966;SDS011;56108;48.730;9.304;2023-10-09T07:55:48;7.40;;;3.38;;
966;SDS011;56108;48.730;9.304;2023-10-09T07:58:03;7.68;;;3.63;;
966;SDS011;56108;48.730;9.304;2023-10-09T08:00:16;11.68;;;4.20;;
966;SDS011;56108;48.730;9.304;2023-10-09T08:02:40;5.28;;;3.20;;
966;SDS011;56108;48.730;9.304;2023-10-09T08:04:48;9.90;;;4.00;;
966;SDS011;56108;48.730;9.304;2023-10-09T08:06:58;6.53;;;3.42;;
966;SDS011;56108;48.730;9.304;2023-10-09T08:09:31;7.75;;;3.45;;
966;SDS011;56108;48.730;9.304;2023-10-09T08:11:52;10.30;;;3.97;;
966;SDS011;56108;48.730;9.304;2023-10-09T08:14:13;6.50;;;4.15;;
966;SDS011;56108;48.730;9.304;2023-10-09T08:16:48;12.07;;;3.35;;
966;SDS011;56108;48.730;9.304;2023-10-09T08:18:59;7.90;;;4.30;;
966;SDS011;56108;48.730;9.304;2023-10-09T08:21:25;7.10;;;3.22;;
966;SDS011;56108;48.730;9.304;2023-10-09T08:23:46;4.53;;;3.13;;
966;SDS011;56108;48.730;9.304;2023-10-09T08:26:00;4.47;;;3.35;;
966;SDS011;56108;48.730;9.304;2023-10-09T08:28:18;4.50;;;2.92;;
966;SDS011;56108;48.730;9.304;2023-10-09T08:30:51;11.57;;;3.70;;
966;SDS011;56108;48.730;9.304;2023-10-09T08:33:23;9.75;;;3.67;;
966;SDS011;56108;48.730;9.304;2023-10-09T08:36:07;4.90;;;3.17;;
966;SDS011;56108;48.730;9.304;2023-10-09T08:38:20;7.03;;;3.60;;
966;SDS011;56108;48.730;9.304;2023-10-09T08:40:33;7.07;;;4.20;;
966;SDS011;56108;48.730;9.304;2023-10-09T08:42:44;7.45;;;3.20;;
966;SDS011;56108;48.730;9.304;2023-10-09T08:44:57;7.60;;;4.10;;
966;SDS011;56108;48.730;9.304;2023-10-09T08:47:08;11.00;;;3.63;;
966;SDS011;56108;48.730;9.304;2023-10-09T08:49:17;4.85;;;3.42;;
966;SDS011;56108;48.730;9.304;2023-10-09T08:51:29;7.88;;;4.43;;
966;SDS011;56108;48.730;9.304;2023-10-09T08:53:40;3.72;;;2.85;;
966;SDS011;56108;48.730;9.304;2023-10-09T08:55:47;9.65;;;3.92;;
966;SDS011;56108;48.730;9.304;2023-10-09T08:57:56;9.10;;;3.15;;
966;SDS011;56108;48.730;9.304;2023-10-09T09:00:06;8.40;;;3.75;;
966;SDS011;56108;48.730;9.304;2023-10-09T09:02:16;13.05;;;3.58;;
966;SDS011;56108;48.730;9.304;2023-10-09T09:04:33;8.95;;;3.40;;
966;SDS011;56108;48.730;9.304;2023-10-09T09:06:46;6.07;;;3.00;;
966;SDS011;56108;48.730;9.304;2023-10-09T09:08:55;6.88;;;3.67;;
966;SDS011;56108;48.730;9.304;2023-10-09T09:11:19;5.38;;;3.55;;
966;SDS011;56108;48.730;9.304;2023-10-09T09:13:35;8.07;;;2.97;;
966;SDS011;56108;48.730;9.304;2023-10-09T09:15:46;8.52;;;2.90;;
966;SDS011;56108;48.730;9.304;2023-10-09T09:18:03;11.13;;;3.33;;
966;SDS011;56108;48.730;9.304;2023-10-09T09:20:19;7.13;;;3.50;;
966;SDS011;56108;48.730;9.304;2023-10-09T09:22:40;5.85;;;2.85;;
966;SDS011;56108;48.730;9.304;2023-10-09T09:25:01;7.85;;;3.10;;
966;SDS011;56108;48.730;9.304;2023-10-09T09:27:14;8.88;;;3.33;;
966;SDS011;56108;48.730;9.304;2023-10-09T09:29:37;7.63;;;3.60;;
966;SDS011;56108;48.730;9.304;2023-10-09T09:31:52;6.68;;;2.72;;
966;SDS011;56108;48.730;9.304;2023-10-09T09:34:02;6.15;;;3.67;;
966;SDS011;56108;48.730;9.304;2023-10-09T09:36:13;8.52;;;3.70;;
966;SDS011;56108;48.730;9.304;2023-10-09T09:38:24;5.57;;;3.70;;
966;SDS011;56108;48.730;9.304;2023-10-09T09:40:44;7.63;;;3.13;;
966;SDS011;56108;48.730;9.304;2023-10-09T09:43:00;7.78;;;2.70;;
966;SDS011;56108;48.730;9.304;2023-10-09T09:45:09;7.68;;;2.50;;
966;SDS011;56108;48.730;9.304;2023-10-09T09:47:19;7.20;;;3.47;;
966;SDS011;56108;48.730;9.304;2023-10-09T09:49:32;9.77;;;3.10;;
966;SDS011;56108;48.730;9.304;2023-10-09T09:51:43;4.93;;;2.30;;
966;SDS011;56108;48.730;9.304;2023-10-09T09:53:54;6.85;;;2.83;;
966;SDS011;56108;48.730;9.304;2023-10-09T09:56:03;4.77;;;2.30;;
966;SDS011;56108;48.730;9.304;2023-10-09T09:58:18;10.33;;;3.10;;
966;SDS011;56108;48.730;9.304;2023-10-09T10:00:29;6.67;;;2.90;;
966;SDS011;56108;48.730;9.304;2023-10-09T10:02:48;6.57;;;2.30;;
966;SDS011;56108;48.730;9.304;2023-10-09T10:05:02;6.00;;;3.50;;
966;SDS011;56108;48.730;9.304;2023-10-09T10:07:16;8.00;;;3.07;;
966;SDS011;56108;48.730;9.304;2023-10-09T10:09:38;7.50;;;2.83;;
966;SDS011;56108;48.730;9.304;2023-10-09T10:11:49;4.00;;;2.83;;
966;SDS011;56108;48.730;9.304;2023-10-09T10:13:59;5.87;;;2.77;;
966;SDS011;56108;48.730;9.304;2023-10-09T10:16:12;7.70;;;2.80;;
966;SDS011;56108;48.730;9.304;2023-10-09T10:18:25;3.87;;;2.70;;
966;SDS011;56108;48.730;9.304;2023-10-09T10:20:53;3.90;;;1.77;;
966;SDS011;56108;48.730;9.304;2023-10-09T10:23:21;7.53;;;2.90;;
966;SDS011;56108;48.730;9.304;2023-10-09T10:25:36;10.00;;;2.80;;
966;SDS011;56108;48.730;9.304;2023-10-09T10:27:46;7.60;;;2.13;;
966;SDS011;56108;48.730;9.304;2023-10-09T10:30:34;8.43;;;2.87;;
966;SDS011;56108;48.730;9.304;2023-10-09T10:32:54;5.50;;;2.80;;
966;SDS011;56108;48.730;9.304;2023-10-09T10:35:14;5.50;;;2.57;;
966;SDS011;56108;48.730;9.304;2023-10-09T10:37:35;7.33;;;3.27;;
966;SDS011;56108;48.730;9.304;2023-10-09T10:39:49;6.60;;;2.30;;
966;SDS011;56108;48.730;9.304;2023-10-09T10:42:07;8.27;;;2.63;;
966;SDS011;56108;48.730;9.304;2023-10-09T10:44:35;4.43;;;2.27;;
966;SDS011;56108;48.730;9.304;2023-10-09T10:46:42;4.50;;;2.43;;
966;SDS011;56108;48.730;9.304;2023-10-09T10:48:58;4.50;;;2.10;;
966;SDS011;56108;48.730;9.304;2023-10-09T10:51:05;10.07;;;2.70;;
966;SDS011;56108;48.730;9.304;2023-10-09T10:53:16;6.67;;;2.83;;
966;SDS011;56108;48.730;9.304;2023-10-09T10:55:25;8.47;;;3.00;;
966;SDS011;56108;48.730;9.304;2023-10-09T10:57:54;4.97;;;2.60;;
966;SDS011;56108;48.730;9.304;2023-10-09T11:00:15;7.50;;;2.70;;
966;SDS011;56108;48.730;9.304;2023-10-09T11:02:44;5.87;;;2.37;;
966;SDS011;56108;48.730;9.304;2023-10-09T11:04:53;8.70;;;3.00;;
966;SDS011;56108;48.730;9.304;2023-10-09T11:07:21;4.63;;;2.50;;
966;SDS011;56108;48.730;9.304;2023-10-09T11:09:42;4.83;;;2.80;;
966;SDS011;56108;48.730;9.304;2023-10-09T11:12:04;7.77;;;2.73;;
966;SDS011;56108;48.730;9.304;2023-10-09T11:14:29;6.17;;;2.70;;
966;SDS011;56108;48.730;9.304;2023-10-09T11:16:49;7.00;;;2.60;;
966;SDS011;56108;48.730;9.304;2023-10-09T11:18:55;3.50;;;2.33;;
966;SDS011;56108;48.730;9.304;2023-10-09T11:21:17;5.30;;;3.40;;
966;SDS011;56108;48.730;9.304;2023-10-09T11:23:36;4.97;;;2.43;;
966;SDS011;56108;48.730;9.304;2023-10-09T11:25:44;4.00;;;2.47;;
966;SDS011;56108;48.730;9.304;2023-10-09T11:28:16;5.50;;;2.40;;
966;SDS011;56108;48.730;9.304;2023-10-09T11:30:37;10.63;;;3.40;;
966;SDS011;56108;48.730;9.304;2023-10-09T11:32:46;10.83;;;3.17;;
966;SDS011;56108;48.730;9.304;2023-10-09T11:35:08;8.73;;;2.83;;
966;SDS011;56108;48.730;9.304;2023-10-09T11:37:20;7.13;;;3.87;;
966;SDS011;56108;48.730;9.304;2023-10-09T11:39:44;9.70;;;3.40;;
966;SDS011;56108;48.730;9.304;2023-10-09T11:42:02;8.63;;;3.10;;
966;SDS011;56108;48.730;9.304;2023-10-09T11:44:11;5.40;;;3.20;;
966;SDS011;56108;48.730;9.304;2023-10-09T11:46:33;9.40;;;4.30;;
966;SDS011;56108;48.730;9.304;2023-10-09T11:49:02;3.60;;;2.80;;
966;SDS011;56108;48.730;9.304;2023-10-09T11:51:31;4.87;;;2.80;;
966;SDS011;56108;48.730;9.304;2023-10-09T11:53:39;9.10;;;2.77;;
966;SDS011;56108;48.730;9.304;2023-10-09T11:55:48;5.90;;;2.70;;
966;SDS011;56108;48.730;9.304;2023-10-09T11:57:55;6.10;;;3.40;;
966;SDS011;56108;48.730;9.304;2023-10-09T12:00:04;10.03;;;3.03;;
966;SDS011;56108;48.730;9.304;2023-10-09T12:02:34;9.53;;;3.37;;
966;SDS011;56108;48.730;9.304;2023-10-09T12:04:49;5.40;;;2.70;;
966;SDS011;56108;48.730;9.304;2023-10-09T12:07:01;6.10;;;2.83;;
966;SDS011;56108;48.730;9.304;2023-10-09T12:09:11;9.10;;;3.07;;
966;SDS011;56108;48.730;9.304;2023-10-09T12:11:29;7.13;;;3.27;;
966;SDS011;56108;48.730;9.304;2023-10-09T12:13:37;10.00;;;3.17;;
966;SDS011;56108;48.730;9.304;2023-10-09T12:15:47;8.73;;;3.10;;
966;SDS011;56108;48.730;9.304;2023-10-09T12:18:01;13.17;;;3.20;;
966;SDS011;56108;48.730;9.304;2023-10-09T12:20:13;7.20;;;3.30;;
966;SDS011;56108;48.730;9.304;2023-10-09T12:22:35;7.30;;;2.53;;
966;SDS011;56108;48.730;9.304;2023-10-09T12:24:45;5.20;;;2.37;;
966;SDS011;56108;48.730;9.304;2023-10-09T12:26:54;10.87;;;2.77;;
966;SDS011;56108;48.730;9.304;2023-10-09T12:29:04;7.90;;;3.07;;
966;SDS011;56108;48.730;9.304;2023-10-09T12:31:20;10.20;;;2.90;;
966;SDS011;56108;48.730;9.304;2023-10-09T12:33:36;9.53;;;1.97;;
966;SDS011;56108;48.730;9.304;2023-10-09T12:35:45;6.40;;;2.53;;
966;SDS011;56108;48.730;9.304;2023-10-09T12:37:52;8.93;;;3.20;;
966;SDS011;56108;48.730;9.304;2023-10-09T12:40:01;10.70;;;2.63;;
966;SDS011;56108;48.730;9.304;2023-10-09T12:42:10;5.30;;;2.30;;
966;SDS011;56108;48.730;9.304;2023-10-09T12:44:21;12.50;;;2.73;;
966;SDS011;56108;48.730;9.304;2023-10-09T12:46:34;10.67;;;2.57;;
966;SDS011;56108;48.730;9.304;2023-10-09T12:48:45;5.40;;;2.90;;
966;SDS011;56108;48.730;9.304;2023-10-09T12:50:55;12.00;;;3.50;;
966;SDS011;56108;48.730;9.304;2023-10-09T12:53:02;12.60;;;2.63;;
966;SDS011;56108;48.730;9.304;2023-10-09T12:55:11;8.33;;;3.17;;
966;SDS011;56108;48.730;9.304;2023-10-09T12:57:25;11.10;;;2.87;;
966;SDS011;56108;48.730;9.304;2023-10-09T12:59:35;8.53;;;2.77;;
966;SDS011;56108;48.730;9.304;2023-10-09T13:01:45;8.13;;;3.10;;
966;SDS011;56108;48.730;9.304;2023-10-09T13:04:01;8.30;;;3.03;;
966;SDS011;56108;48.730;9.304;2023-10-09T13:06:16;9.80;;;2.70;;
966;SDS011;56108;48.730;9.304;2023-10-09T13:08:29;8.50;;;2.90;;
966;SDS011;56108;48.730;9.304;2023-10-09T13:10:40;8.60;;;3.00;;
966;SDS011;56108;48.730;9.304;2023-10-09T13:12:48;8.93;;;3.00;;
966;SDS011;56108;48.730;9.304;2023-10-09T13:14:59;5.90;;;2.40;;
966;SDS011;56108;48.730;9.304;2023-10-09T13:17:13;6.20;;;2.83;;
966;SDS011;56108;48.730;9.304;2023-10-09T13:19:24;9.67;;;3.13;;
966;SDS011;56108;48.730;9.304;2023-10-09T13:21:33;5.70;;;2.23;;
966;SDS011;56108;48.730;9.304;2023-10-09T13:23:43;8.83;;;3.53;;
966;SDS011;56108;48.730;9.304;2023-10-09T13:25:54;5.50;;;2.40;;
966;SDS011;56108;48.730;9.304;2023-10-09T13:28:18;9.13;;;2.33;;
966;SDS011;56108;48.730;9.304;2023-10-09T13:30:27;8.10;;;3.40;;
966;SDS011;56108;48.730;9.304;2023-10-09T13:32:45;3.77;;;1.87;;
966;SDS011;56108;48.730;9.304;2023-10-09T13:34:56;5.20;;;2.70;;
966;SDS011;56108;48.730;9.304;2023-10-09T13:37:07;8.20;;;2.93;;
966;SDS011;56108;48.730;9.304;2023-10-09T13:39:18;5.87;;;2.43;;
966;SDS011;56108;48.730;9.304;2023-10-09T13:41:29;5.73;;;2.50;;
966;SDS011;56108;48.730;9.304;2023-10-09T13:43:37;12.60;;;3.03;;
966;SDS011;56108;48.730;9.304;2023-10-09T13:45:45;7.50;;;3.00;;
966;SDS011;56108;48.730;9.304;2023-10-09T13:47:56;8.03;;;2.50;;
966;SDS011;56108;48.730;9.304;2023-10-09T13:50:11;6.53;;;3.40;;
966;SDS011;56108;48.730;9.304;2023-10-09T13:52:18;9.77;;;3.17;;
966;SDS011;56108;48.730;9.304;2023-10-09T13:54:27;9.60;;;2.73;;
966;SDS011;56108;48.730;9.304;2023-10-09T13:56:47;7.33;;;2.80;;
966;SDS011;56108;48.730;9.304;2023-10-09T13:58:57;11.80;;;4.30;;
966;SDS011;56108;48.730;9.304;2023-10-09T14:01:06;8.20;;;2.53;;